KAZO/AZO METAR and TAF weather

Enter ICAO airport designator
Station Type Date Time Source
KAZO METAR 2018/07/21 11:48 UTC NOAA

KAZO 211148Z VRB04KT 4SM -RA BR BKN007 BKN010 OVC013 21/19 A2968 RMK AO2 P0003


Station Type Date Time Source
KAZO Decoded METAR 2018/07/21 11:48 UTC NOAA

KALAMAZOO/BATTLE CREEK AIRPORT, MI, United States (KAZO) 42-14N 085-33W 272M
Jul 21, 2018 - 07:48 AM EDT / 2018.07.21 1148 UTC
Wind: Variable at 5 MPH (4 KT):0
Visibility: 4 mile(s):0
Sky conditions: overcast
Weather: light rain; mist
Precipitation last hour: 0.03 inches
Temperature: 69 F (21 C)
Dew Point: 66 F (19 C)
Relative Humidity: 88%
Pressure (altimeter): 29.68 in. Hg (1005 hPa)
ob: KAZO 211148Z VRB04KT 4SM -RA BR BKN007 BKN010 OVC013 21/19 A2968 RMK AO2 P0003
cycle: 12

Station Type Date Time Source
KAZO TAF 2018/07/21 12:42 UTC NOAA

TAF KAZO 211141Z 2112/2212 10005KT P6SM VCSH BKN008 OVC015
TEMPO 2112/2116 2SM -SHRA OVC005
FM211600 04010KT P6SM VCSH OVC015
FM212000 03008KT 2SM SHRA VCTS BKN015CB OVC020
FM220100 03006KT 6SM -SHRA OVC008
FM220500 02005KT 3SM BR OVC004


Example: see airport list